Time;durP1;ratioP1;P1;durP2;ratioP2;P2;SDS_P1;SDS_P2;PMS_P1;PMS_P2;Temp;Humidity;BMP_temperature;BMP_pressure;BME280_temperature;BME280_humidity;BME280_pressure;Samples;Min_cycle;Max_cycle;Signal;HPM_P1;HPM_P2
2022/08/04 00:02:11;;;;;;;9.90;4.50;;;;;;;-143.66;100.00;63766.88;5056780;28;20051;-64
2022/08/04 00:04:50;;;;;;;10.35;4.85;;;;;;;-143.66;100.00;63766.88;5049856;28;20109;-64
2022/08/04 00:07:34;;;;;;;13.55;5.55;;;;;;;-143.66;100.00;63766.88;5056643;28;20032;-64
2022/08/04 00:10:02;;;;;;;13.40;4.32;;;;;;;-143.66;100.00;63766.88;5060916;28;20833;-64
2022/08/04 00:12:32;;;;;;;12.57;4.63;;;;;;;-143.66;100.00;63766.88;5054911;28;20119;-64
2022/08/04 00:15:00;;;;;;;7.22;4.35;;;;;;;-143.66;100.00;63766.88;5053586;28;20033;-64
2022/08/04 00:17:43;;;;;;;9.95;4.53;;;;;;;-143.66;100.00;63766.88;5054424;28;20078;-64
2022/08/04 00:20:09;;;;;;;9.00;5.07;;;;;;;-143.66;100.00;63766.88;5056483;28;20366;-64
2022/08/04 00:22:38;;;;;;;10.57;4.40;;;;;;;-143.66;100.00;63766.88;5050157;28;20040;-64
2022/08/04 00:25:05;;;;;;;12.88;5.10;;;;;;;-143.66;100.00;63766.88;5056996;28;20033;-64
2022/08/04 00:27:31;;;;;;;13.50;4.93;;;;;;;-143.66;100.00;63766.88;5051403;28;22040;-64
2022/08/04 00:29:58;;;;;;;9.65;4.90;;;;;;;-143.66;100.00;63766.88;5057160;28;20036;-64
2022/08/04 00:32:26;;;;;;;11.05;4.97;;;;;;;-143.66;100.00;63766.88;5054571;28;20044;-64
2022/08/04 00:34:53;;;;;;;8.80;4.90;;;;;;;-143.66;100.00;63766.88;5056225;28;20799;-64
2022/08/04 00:37:23;;;;;;;10.27;4.63;;;;;;;-143.66;100.00;63766.88;5054926;28;20039;-64
2022/08/04 00:39:53;;;;;;;9.32;5.05;;;;;;;-143.66;100.00;63766.88;5049410;28;20123;-64
2022/08/04 00:42:36;;;;;;;12.02;5.00;;;;;;;-143.66;100.00;63766.88;5058804;28;20060;-64
2022/08/04 00:45:13;;;;;;;11.25;4.63;;;;;;;-143.66;100.00;63766.88;5066157;28;20144;-64
2022/08/04 00:48:17;;;;;;;7.57;4.68;;;;;;;-143.66;100.00;63766.88;5062581;28;20040;-64
2022/08/04 00:50:44;;;;;;;14.68;5.25;;;;;;;-143.66;100.00;63766.88;5055905;28;20466;-64
2022/08/04 00:53:43;;;;;;;11.35;5.00;;;;;;;-143.66;100.00;63766.88;5049516;28;20036;-64
2022/08/04 00:56:11;;;;;;;;;;;;;;;-143.66;100.00;63766.88;5057626;28;20048;-64
2022/08/04 00:58:46;;;;;;;7.95;5.15;;;;;;;-143.66;100.00;63766.88;5055037;28;19920;-64
2022/08/04 01:01:31;;;;;;;9.85;4.63;;;;;;;-143.66;100.00;63766.88;5049110;28;20036;-64
2022/08/04 01:04:23;;;;;;;10.13;4.93;;;;;;;-143.66;100.00;63766.88;5056616;28;20028;-64
2022/08/04 01:07:13;;;;;;;9.50;4.30;;;;;;;-143.66;100.00;63766.88;5055135;28;20144;-64
2022/08/04 01:09:50;;;;;;;10.40;5.18;;;;;;;-143.66;100.00;63766.88;5052363;28;20622;-64
2022/08/04 01:12:42;;;;;;;9.68;5.15;;;;;;;-143.66;100.00;63766.88;5053544;28;20041;-64
2022/08/04 01:15:43;;;;;;;9.38;5.68;;;;;;;-143.66;100.00;63766.88;5059253;28;20064;-64
2022/08/04 01:18:26;;;;;;;9.23;4.75;;;;;;;-143.66;100.00;63766.88;5030145;28;20044;-64
2022/08/04 01:20:51;;;;;;;9.82;5.55;;;;;;;-143.66;100.00;63766.88;5064912;28;20032;-64
2022/08/04 01:23:42;;;;;;;11.80;5.30;;;;;;;-143.66;100.00;63766.88;5061318;28;21420;-64
2022/08/04 01:26:10;;;;;;;10.35;5.18;;;;;;;-143.66;100.00;63766.88;5058903;28;20032;-64
2022/08/04 01:29:03;;;;;;;10.32;5.10;;;;;;;-143.66;100.00;63766.88;5060266;28;20055;-64
2022/08/04 01:32:01;;;;;;;7.32;4.80;;;;;;;-143.66;100.00;63766.88;5060654;28;20534;-64
2022/08/04 01:34:30;;;;;;;10.25;5.10;;;;;;;-143.66;100.00;63766.88;5058048;28;20390;-64
2022/08/04 01:37:10;;;;;;;8.68;4.57;;;;;;;-143.66;100.00;63766.88;5057087;28;20044;-64
2022/08/04 01:39:54;;;;;;;9.00;5.25;;;;;;;-143.66;100.00;63766.88;5055776;28;20040;-64
2022/08/04 01:42:23;;;;;;;9.48;5.22;;;;;;;-143.66;100.00;63766.88;5060591;28;20048;-64
2022/08/04 01:44:49;;;;;;;10.95;5.40;;;;;;;-143.66;100.00;63766.88;5063391;28;20036;-64
2022/08/04 01:47:16;;;;;;;9.80;5.03;;;;;;;-143.66;100.00;63766.88;5056834;28;20414;-64
2022/08/04 01:49:48;;;;;;;11.90;5.63;;;;;;;-143.66;100.00;63766.88;5067924;28;20040;-64
2022/08/04 01:52:16;;;;;;;10.00;5.25;;;;;;;-143.66;100.00;63766.88;5065836;28;20496;-64
2022/08/04 01:54:42;;;;;;;11.00;4.93;;;;;;;-143.66;100.00;63766.88;5059960;28;20079;-64
2022/08/04 01:57:10;;;;;;;8.85;5.13;;;;;;;-143.66;100.00;63766.88;5059362;28;20394;-64
2022/08/04 01:59:37;;;;;;;12.27;5.68;;;;;;;-143.66;100.00;63766.88;5055554;28;20090;-64
2022/08/04 02:02:04;;;;;;;9.80;5.43;;;;;;;-143.66;100.00;63766.88;5057837;28;20059;-64
2022/08/04 02:04:30;;;;;;;9.82;5.47;;;;;;;-143.66;100.00;63766.88;5059276;28;20119;-64
2022/08/04 02:07:26;;;;;;;9.20;5.68;;;;;;;-143.66;100.00;63766.88;5055349;28;20117;-64
2022/08/04 02:10:27;;;;;;;12.77;5.65;;;;;;;-143.66;100.00;63766.88;5063638;28;20528;-64
2022/08/04 02:13:20;;;;;;;11.98;5.35;;;;;;;-143.66;100.00;63766.88;5061404;28;20470;-64
2022/08/04 02:15:56;;;;;;;8.90;5.20;;;;;;;-143.66;100.00;63766.88;5058683;28;20908;-64
2022/08/04 02:18:45;;;;;;;7.13;4.57;;;;;;;-143.66;100.00;63766.88;5057911;28;20036;-64
2022/08/04 02:21:14;;;;;;;10.93;5.47;;;;;;;-143.66;100.00;63766.88;5058747;28;20032;-64
2022/08/04 02:23:40;;;;;;;10.93;5.40;;;;;;;-143.66;100.00;63766.88;5058728;28;20394;-64
2022/08/04 02:26:15;;;;;;;9.45;5.55;;;;;;;-143.66;100.00;63766.88;5037773;28;20040;-64
2022/08/04 02:29:00;;;;;;;12.10;5.72;;;;;;;-143.66;100.00;63766.88;5063940;28;20427;-64
2022/08/04 02:31:29;;;;;;;8.20;4.63;;;;;;;-143.66;100.00;63766.88;5066597;28;20078;-64
2022/08/04 02:34:04;;;;;;;7.85;5.25;;;;;;;-143.66;100.00;63766.88;5055189;28;20028;-64
2022/08/04 02:36:34;;;;;;;8.27;4.88;;;;;;;-143.66;100.00;63766.88;5057505;28;20045;-64
2022/08/04 02:39:02;;;;;;;11.77;5.10;;;;;;;-143.66;100.00;63766.88;5058163;28;20037;-64
2022/08/04 02:41:29;;;;;;;9.80;4.90;;;;;;;-143.66;100.00;63766.88;5056470;28;20076;-64
2022/08/04 02:43:57;;;;;;;10.77;5.30;;;;;;;-143.66;100.00;63766.88;5058762;28;20037;-64
2022/08/04 02:46:24;;;;;;;11.13;5.47;;;;;;;-143.66;100.00;63766.88;5057296;28;20028;-64
2022/08/04 02:48:52;;;;;;;9.63;5.65;;;;;;;-143.66;100.00;63766.88;5056957;28;20123;-64
2022/08/04 02:51:30;;;;;;;10.45;5.40;;;;;;;-143.66;100.00;63766.88;5060730;28;20047;-64
2022/08/04 02:53:58;;;;;;;10.50;5.40;;;;;;;-143.66;100.00;63766.88;5064458;28;20040;-64
2022/08/04 02:56:27;;;;;;;9.27;4.88;;;;;;;-143.66;100.00;63766.88;5064048;28;20664;-64
2022/08/04 02:59:12;;;;;;;8.98;5.30;;;;;;;-143.66;100.00;63766.88;5065000;28;20482;-64
2022/08/04 03:01:40;;;;;;;9.80;5.65;;;;;;;-143.66;100.00;63766.88;5053786;28;20075;-64
2022/08/04 03:04:17;;;;;;;9.65;5.68;;;;;;;-143.66;100.00;63766.88;5063011;28;20048;-64
2022/08/04 03:07:40;;;;;;;12.63;5.65;;;;;;;-143.66;100.00;63766.88;5054262;28;20786;-64
2022/08/04 03:10:26;;;;;;;9.70;5.25;;;;;;;-143.66;100.00;63766.88;4965368;28;20130;-64
2022/08/04 03:13:21;;;;;;;11.23;5.15;;;;;;;-143.66;100.00;63766.88;4965329;28;20137;-64
2022/08/04 03:16:04;;;;;;;9.90;5.40;;;;;;;-143.66;100.00;63766.88;5047332;28;20040;-64
2022/08/04 03:18:48;;;;;;;8.25;4.80;;;;;;;-143.66;100.00;63766.88;5057485;28;20402;-64
2022/08/04 03:21:55;;;;;;;7.82;4.97;;;;;;;-143.66;100.00;63766.88;5053489;28;20036;-64
2022/08/04 03:25:14;;;;;;;8.90;5.07;;;;;;;-143.66;100.00;63766.88;5055153;28;20044;-64
2022/08/04 03:27:51;;;;;;;10.73;5.47;;;;;;;-143.66;100.00;63766.88;4990453;28;20045;-64
2022/08/04 03:30:51;;;;;;;12.27;5.32;;;;;;;-143.66;100.00;63766.88;4994098;28;20041;-64
2022/08/04 03:33:54;;;;;;;9.02;5.38;;;;;;;-143.66;100.00;63766.88;5038927;28;20048;-64
2022/08/04 03:36:34;;;;;;;9.02;5.47;;;;;;;-143.66;100.00;63766.88;5056642;28;20866;-64
2022/08/04 03:39:23;;;;;;;9.65;5.22;;;;;;;-143.66;100.00;63766.88;5060624;28;20081;-64
2022/08/04 03:42:07;;;;;;;;;;;;;;;-143.66;100.00;63766.88;5061770;28;20442;-64
2022/08/04 03:44:51;;;;;;;9.20;5.65;;;;;;;-143.66;100.00;63766.88;5060347;28;19927;-64
2022/08/04 03:47:53;;;;;;;11.85;5.95;;;;;;;-143.66;100.00;63766.88;5055835;28;20702;-64
2022/08/04 03:50:37;;;;;;;6.20;4.72;;;;;;;-143.66;100.00;63766.88;5053584;28;20043;-64
2022/08/04 03:53:21;;;;;;;8.43;5.30;;;;;;;-143.66;100.00;63766.88;5052849;28;20097;-64
2022/08/04 03:56:16;;;;;;;6.63;4.80;;;;;;;-143.66;100.00;63766.88;5038629;28;20032;-65
2022/08/04 03:58:59;;;;;;;8.90;4.97;;;;;;;-143.66;100.00;63766.88;5056225;28;20650;-64
2022/08/04 04:01:48;;;;;;;11.98;5.22;;;;;;;-143.66;100.00;63766.88;5050682;28;20071;-64
2022/08/04 04:04:39;;;;;;;12.48;5.40;;;;;;;-143.66;100.00;63766.88;5057604;28;20040;-64
2022/08/04 04:07:07;;;;;;;9.32;4.97;;;;;;;-143.66;100.00;63766.88;5054830;28;20052;-64
2022/08/04 04:09:45;;;;;;;10.35;5.80;;;;;;;-143.66;100.00;63766.88;5058647;28;20048;-64
2022/08/04 04:12:50;;;;;;;9.73;4.95;;;;;;;-143.66;100.00;63766.88;5060916;28;20450;-64
2022/08/04 04:15:40;;;;;;;14.00;5.70;;;;;;;-143.66;100.00;63766.88;5043326;28;20137;-64
2022/08/04 04:18:34;;;;;;;8.95;5.15;;;;;;;-143.66;100.00;63766.88;5053451;28;20508;-64
2022/08/04 04:21:40;;;;;;;9.52;5.30;;;;;;;-143.66;100.00;63766.88;5057387;28;20580;-64
2022/08/04 04:24:49;;;;;;;8.05;5.32;;;;;;;-143.66;100.00;63766.88;5044457;28;20235;-64
2022/08/04 04:27:43;;;;;;;12.45;5.80;;;;;;;-143.66;100.00;63766.88;5058666;28;20520;-64
2022/08/04 04:30:49;;;;;;;8.70;5.22;;;;;;;-143.66;100.00;63766.88;5054465;28;20047;-64
2022/08/04 04:33:41;;;;;;;10.63;5.40;;;;;;;-143.66;100.00;63766.88;5001217;28;20552;-64
2022/08/04 04:36:23;;;;;;;12.80;5.40;;;;;;;-143.66;100.00;63766.88;5054299;28;20036;-64
2022/08/04 04:39:07;;;;;;;10.65;5.32;;;;;;;-143.66;100.00;63766.88;5054088;28;20992;-64
2022/08/04 04:41:45;;;;;;;14.50;5.53;;;;;;;-143.66;100.00;63766.88;5055102;28;20041;-64
2022/08/04 04:44:49;;;;;;;8.55;4.97;;;;;;;-143.66;100.00;63766.88;5054240;28;20120;-64
2022/08/04 04:47:29;;;;;;;8.20;5.20;;;;;;;-143.66;100.00;63766.88;5043463;28;20430;-64
2022/08/04 04:50:13;;;;;;;11.07;5.70;;;;;;;-143.66;100.00;63766.88;5067393;28;20068;-64
2022/08/04 04:52:56;;;;;;;7.18;5.43;;;;;;;-143.66;100.00;63766.88;5060311;28;20043;-64
2022/08/04 04:55:33;;;;;;;12.55;5.70;;;;;;;-143.66;100.00;63766.88;5055757;28;20039;-64
2022/08/04 04:58:00;;;;;;;10.63;5.40;;;;;;;-143.66;100.00;63766.88;5053068;28;20044;-64
2022/08/04 05:01:03;;;;;;;9.05;5.47;;;;;;;-143.66;100.00;63766.88;5036395;28;20059;-64
2022/08/04 05:03:34;;;;;;;10.57;5.85;;;;;;;-143.66;100.00;63766.88;5056210;28;20036;-64
2022/08/04 05:06:19;;;;;;;11.30;5.75;;;;;;;-143.66;100.00;63766.88;5053287;28;20275;-64
2022/08/04 05:09:06;;;;;;;10.45;5.68;;;;;;;-143.66;100.00;63766.88;5054540;28;20041;-64
2022/08/04 05:11:40;;;;;;;10.40;5.68;;;;;;;-143.66;100.00;63766.88;5055770;28;20029;-64
2022/08/04 05:14:16;;;;;;;12.20;6.15;;;;;;;-143.66;100.00;63766.88;5056032;28;20082;-64
2022/08/04 05:17:11;;;;;;;10.07;5.60;;;;;;;-143.66;100.00;63766.88;5054362;28;20069;-64
2022/08/04 05:19:48;;;;;;;11.15;5.55;;;;;;;-143.66;100.00;63766.88;5048435;28;20060;-64
2022/08/04 05:22:27;;;;;;;9.07;5.28;;;;;;;-143.66;100.00;63766.88;5060335;28;20032;-64
2022/08/04 05:25:04;;;;;;;12.05;6.05;;;;;;;-143.66;100.00;63766.88;5057664;28;20124;-64
2022/08/04 05:27:37;;;;;;;10.40;5.55;;;;;;;-143.66;100.00;63766.88;5055256;28;20177;-64
2022/08/04 05:30:05;;;;;;;9.52;5.57;;;;;;;-143.66;100.00;63766.88;5055185;28;20590;-64
2022/08/04 05:32:47;;;;;;;9.77;5.30;;;;;;;-143.66;100.00;63766.88;5037631;28;20044;-64
2022/08/04 05:35:20;;;;;;;8.38;5.32;;;;;;;-143.66;100.00;63766.88;5055253;28;20037;-64
2022/08/04 05:37:49;;;;;;;10.15;5.43;;;;;;;-143.66;100.00;63766.88;5033798;28;20039;-64
2022/08/04 05:40:18;;;;;;;8.68;5.35;;;;;;;-143.66;100.00;63766.88;5054394;28;20041;-64
2022/08/04 05:42:43;;;;;;;10.43;6.03;;;;;;;-143.66;100.00;63766.88;5054795;28;20222;-64
2022/08/04 05:45:09;;;;;;;8.80;5.20;;;;;;;-143.66;100.00;63766.88;5056209;28;20052;-64
2022/08/04 05:47:36;;;;;;;9.90;5.65;;;;;;;-143.66;100.00;63766.88;5055838;28;20040;-64
2022/08/04 05:50:03;;;;;;;6.80;5.35;;;;;;;-143.66;100.00;63766.88;5061762;28;20041;-64
2022/08/04 05:52:35;;;;;;;9.38;6.10;;;;;;;-143.66;100.00;63766.88;5056274;28;20135;-64
2022/08/04 05:55:01;;;;;;;8.38;5.80;;;;;;;-143.66;100.00;63766.88;5054825;28;20048;-64
2022/08/04 05:57:28;;;;;;;9.25;5.45;;;;;;;-143.66;100.00;63766.88;5060756;28;20047;-64
2022/08/04 05:59:56;;;;;;;9.90;5.55;;;;;;;-143.66;100.00;63766.88;5060992;28;20040;-64
2022/08/04 06:02:23;;;;;;;9.70;5.75;;;;;;;-143.66;100.00;63766.88;5053320;28;20091;-64
2022/08/04 06:04:51;;;;;;;9.68;5.40;;;;;;;-143.66;100.00;63766.88;5060544;28;20067;-64
2022/08/04 06:07:17;;;;;;;8.65;5.10;;;;;;;-143.66;100.00;63766.88;5058498;28;20385;-64
2022/08/04 06:09:43;;;;;;;11.23;5.35;;;;;;;-143.66;100.00;63766.88;5060475;28;20409;-64
2022/08/04 06:12:25;;;;;;;9.02;5.15;;;;;;;-143.66;100.00;63766.88;5055160;28;20036;-64
2022/08/04 06:14:55;;;;;;;9.32;5.28;;;;;;;-143.66;100.00;63766.88;5060239;28;20036;-64
2022/08/04 06:17:28;;;;;;;10.60;5.85;;;;;;;-143.66;100.00;63766.88;5060452;28;20041;-64
2022/08/04 06:19:54;;;;;;;8.23;5.38;;;;;;;-143.66;100.00;63766.88;5057337;28;20043;-64
2022/08/04 06:22:22;;;;;;;10.00;5.45;;;;;;;-143.66;100.00;63766.88;5067402;28;20048;-64
2022/08/04 06:24:51;;;;;;;10.70;5.40;;;;;;;-143.66;100.00;63766.88;5064757;28;20074;-64
2022/08/04 06:27:17;;;;;;;10.73;5.50;;;;;;;-143.66;100.00;63766.88;5057617;28;20100;-64
2022/08/04 06:29:44;;;;;;;8.82;5.43;;;;;;;-143.66;100.00;63766.88;5065374;28;20033;-63
2022/08/04 06:32:23;;;;;;;6.82;5.28;;;;;;;-143.66;100.00;63766.88;5057906;28;20130;-64
2022/08/04 06:34:55;;;;;;;8.13;5.00;;;;;;;-143.66;100.00;63766.88;5064390;28;20039;-64
2022/08/04 06:37:22;;;;;;;8.32;5.03;;;;;;;-143.66;100.00;63766.88;5062759;28;20040;-64
2022/08/04 06:39:49;;;;;;;8.20;5.20;;;;;;;-143.66;100.00;63766.88;5063562;28;20496;-64
2022/08/04 06:42:16;;;;;;;9.60;5.10;;;;;;;-143.66;100.00;63766.88;5051943;28;20091;-65
2022/08/04 06:44:47;;;;;;;9.68;5.25;;;;;;;-143.66;100.00;63766.88;5050934;28;20130;-64
2022/08/04 06:47:18;;;;;;;9.07;5.38;;;;;;;-143.66;100.00;63766.88;5068421;28;20731;-65
2022/08/04 06:49:45;;;;;;;10.40;5.28;;;;;;;-143.66;100.00;63766.88;5076015;28;20028;-65
2022/08/04 06:52:16;;;;;;;8.85;5.65;;;;;;;-143.66;100.00;63766.88;5067835;28;20050;-65
2022/08/04 06:54:46;;;;;;;14.32;6.45;;;;;;;-143.66;100.00;63766.88;5069841;28;20402;-64
2022/08/04 06:57:19;;;;;;;14.18;6.35;;;;;;;-143.66;100.00;63766.88;5058157;28;20414;-65
2022/08/04 06:59:48;;;;;;;13.45;5.97;;;;;;;-143.66;100.00;63766.88;5071384;28;20064;-65
2022/08/04 07:02:17;;;;;;;15.67;6.43;;;;;;;-143.66;100.00;63766.88;5058471;28;20052;-65
2022/08/04 07:04:43;;;;;;;14.60;6.75;;;;;;;-143.66;100.00;63766.88;5068243;28;20139;-66
2022/08/04 07:07:10;;;;;;;12.95;5.97;;;;;;;-143.66;100.00;63766.88;5069361;28;20043;-67
2022/08/04 07:09:36;;;;;;;20.60;6.80;;;;;;;-143.66;100.00;63766.88;5069456;28;20043;-66
2022/08/04 07:12:02;;;;;;;16.52;7.60;;;;;;;-143.66;100.00;63766.88;5068024;28;20040;-67
2022/08/04 07:14:30;;;;;;;15.25;6.43;;;;;;;-143.66;100.00;63766.88;5065380;28;20381;-66
2022/08/04 07:16:55;;;;;;;16.02;7.30;;;;;;;-143.66;100.00;63766.88;5066597;28;20109;-66
2022/08/04 07:19:21;;;;;;;16.63;6.20;;;;;;;-143.66;100.00;63766.88;5070708;28;20036;-66
2022/08/04 07:21:47;;;;;;;21.63;7.05;;;;;;;-143.66;100.00;63766.88;5069885;28;20047;-66
2022/08/04 07:24:14;;;;;;;14.35;6.60;;;;;;;-143.66;100.00;63766.88;5065322;28;20071;-66
2022/08/04 07:26:40;;;;;;;18.55;6.68;;;;;;;-143.66;100.00;63766.88;5061471;28;20033;-66
2022/08/04 07:29:06;;;;;;;22.17;7.38;;;;;;;-143.66;100.00;63766.88;5070257;28;20040;-67
2022/08/04 07:31:32;;;;;;;13.85;6.97;;;;;;;-143.66;100.00;63766.88;5071198;28;20552;-67
2022/08/04 07:34:00;;;;;;;13.65;6.50;;;;;;;-143.66;100.00;63766.88;5062626;28;20138;-66
2022/08/04 07:36:26;;;;;;;16.33;6.63;;;;;;;-143.66;100.00;63766.88;5070239;28;20037;-66
2022/08/04 07:38:51;;;;;;;18.02;6.70;;;;;;;-143.66;100.00;63766.88;5065944;28;20102;-67
2022/08/04 07:41:23;;;;;;;19.83;6.90;;;;;;;-143.66;100.00;63766.88;5065630;28;20048;-67
2022/08/04 07:43:49;;;;;;;16.23;6.55;;;;;;;-143.66;100.00;63766.88;5063637;28;20040;-67
2022/08/04 07:46:14;;;;;;;10.02;5.82;;;;;;;-143.66;100.00;63766.88;5070289;28;20085;-67
2022/08/04 07:48:40;;;;;;;16.63;6.72;;;;;;;-143.66;100.00;63766.88;5064980;28;20107;-67
2022/08/04 07:51:06;;;;;;;14.57;6.25;;;;;;;-143.66;100.00;63766.88;5063382;28;20131;-67
2022/08/04 07:53:33;;;;;;;17.05;5.57;;;;;;;-143.66;100.00;63766.88;5060765;28;20099;-67
2022/08/04 07:56:00;;;;;;;14.13;6.13;;;;;;;-143.66;100.00;63766.88;5067790;28;20089;-67
2022/08/04 07:58:27;;;;;;;12.55;5.43;;;;;;;-143.66;100.00;63766.88;5066211;28;20058;-66
2022/08/04 08:00:53;;;;;;;13.38;5.43;;;;;;;-143.66;100.00;63766.88;5060769;28;20051;-65
2022/08/04 08:03:19;;;;;;;11.68;5.45;;;;;;;-143.66;100.00;63766.88;5060288;28;20059;-67
2022/08/04 08:05:45;;;;;;;13.10;5.38;;;;;;;-143.66;100.00;63766.88;5020082;28;20441;-67
2022/08/04 08:08:11;;;;;;;16.02;5.43;;;;;;;-143.66;100.00;63766.88;5059420;28;20123;-66
2022/08/04 08:10:37;;;;;;;13.23;5.63;;;;;;;-143.66;100.00;63766.88;5064463;28;20072;-65
2022/08/04 08:13:03;;;;;;;9.90;5.03;;;;;;;-143.66;100.00;63766.88;5065102;28;20056;-65
2022/08/04 08:15:30;;;;;;;12.50;5.38;;;;;;;-143.66;100.00;63766.88;5061358;28;20075;-66
2022/08/04 08:17:55;;;;;;;14.13;5.00;;;;;;;-143.66;100.00;63766.88;5064630;28;20040;-66
2022/08/04 08:20:21;;;;;;;16.20;5.40;;;;;;;-143.66;100.00;63766.88;5042695;28;20036;-68
2022/08/04 08:22:47;;;;;;;18.02;5.60;;;;;;;-143.66;100.00;63766.88;5062546;28;20056;-67
2022/08/04 08:25:12;;;;;;;12.13;5.60;;;;;;;-143.66;100.00;63766.88;5064464;28;20068;-66
2022/08/04 08:27:38;;;;;;;14.90;5.82;;;;;;;-143.66;100.00;63766.88;5057920;28;20620;-65
2022/08/04 08:30:04;;;;;;;14.50;5.32;;;;;;;-143.66;100.00;63766.88;5054089;28;20075;-65
2022/08/04 08:32:30;;;;;;;10.85;5.25;;;;;;;-143.66;100.00;63766.88;5058799;28;20040;-70
2022/08/04 08:34:55;;;;;;;13.63;5.00;;;;;;;-143.66;100.00;63766.88;5058779;28;20120;-63
2022/08/04 08:37:42;;;;;;;17.77;5.32;;;;;;;-143.66;100.00;63766.88;5016282;28;20047;-64
2022/08/04 08:40:28;;;;;;;12.70;5.57;;;;;;;-143.66;100.00;63766.88;5070129;28;20071;-64
2022/08/04 08:43:28;;;;;;;11.10;5.30;;;;;;;-143.66;100.00;63766.88;5070450;28;20047;-63
2022/08/04 08:46:05;;;;;;;10.20;5.10;;;;;;;-143.66;100.00;63766.88;5064668;28;20118;-64
2022/08/04 08:48:51;;;;;;;12.02;5.25;;;;;;;-143.66;100.00;63766.88;5061666;28;20063;-64
2022/08/04 08:51:50;;;;;;;8.85;4.97;;;;;;;-143.66;100.00;63766.88;5069142;28;20044;-63
2022/08/04 08:54:26;;;;;;;8.55;4.70;;;;;;;-143.66;100.00;63766.88;5041971;28;20222;-63
2022/08/04 08:56:51;;;;;;;12.68;4.82;;;;;;;-143.66;100.00;63766.88;5065723;28;20142;-63
2022/08/04 08:59:47;;;;;;;9.60;4.75;;;;;;;-143.66;100.00;63766.88;5070352;28;20040;-63
2022/08/04 09:03:01;;;;;;;8.65;4.68;;;;;;;-143.66;100.00;63766.88;5061792;28;20606;-67
2022/08/04 09:05:46;;;;;;;14.88;4.90;;;;;;;-143.66;100.00;63766.88;5039704;28;20033;-71
2022/08/04 09:08:14;;;;;;;8.98;4.78;;;;;;;-143.66;100.00;63766.88;5051040;28;20032;-67
2022/08/04 09:10:47;;;;;;;10.68;5.07;;;;;;;-143.66;100.00;63766.88;5064433;28;20037;-68
2022/08/04 09:13:25;;;;;;;15.25;5.05;;;;;;;-143.66;100.00;63766.88;5061431;28;20492;-67
2022/08/04 09:16:12;;;;;;;7.72;4.70;;;;;;;-143.66;100.00;63766.88;5067502;28;20187;-65
2022/08/04 09:18:47;;;;;;;11.23;4.80;;;;;;;-143.66;100.00;63766.88;5062512;28;20032;-67
2022/08/04 09:21:36;;;;;;;13.00;5.03;;;;;;;-143.66;100.00;63766.88;5054421;28;20450;-62
2022/08/04 09:24:25;;;;;;;15.48;5.25;;;;;;;-143.66;100.00;63766.88;5057973;28;20059;-66
2022/08/04 09:27:00;;;;;;;10.73;4.78;;;;;;;-143.66;100.00;63766.88;5061193;28;20110;-65
2022/08/04 09:29:38;;;;;;;15.50;4.47;;;;;;;-143.66;100.00;63766.88;5056700;28;20127;-66
2022/08/04 09:32:31;;;;;;;10.93;5.45;;;;;;;-143.66;100.00;63766.88;5058522;28;20039;-63
2022/08/04 09:35:23;;;;;;;17.58;5.38;;;;;;;-143.66;100.00;63766.88;5061597;28;20469;-63
2022/08/04 09:38:11;;;;;;;21.65;5.78;;;;;;;-143.66;100.00;63766.88;5058963;28;20130;-64
2022/08/04 09:40:46;;;;;;;13.05;5.88;;;;;;;-143.66;100.00;63766.88;5072514;28;20111;-63
2022/08/04 09:43:56;;;;;;;16.13;5.75;;;;;;;-143.66;100.00;63766.88;5066821;28;20386;-62
2022/08/04 09:46:41;;;;;;;11.57;4.95;;;;;;;-143.66;100.00;63766.88;4988732;28;20156;-64
2022/08/04 09:49:43;;;;;;;9.70;5.15;;;;;;;-143.66;100.00;63766.88;5060569;28;20044;-64
2022/08/04 09:52:31;;;;;;;17.30;5.05;;;;;;;-143.66;100.00;63766.88;5045894;28;20052;-66
2022/08/04 09:55:27;;;;;;;10.50;4.80;;;;;;;-143.66;100.00;63766.88;5062813;28;20552;-66
2022/08/04 09:58:06;;;;;;;10.45;5.00;;;;;;;-143.66;100.00;63766.88;5064323;28;20493;-66
2022/08/04 10:00:42;;;;;;;10.37;4.87;;;;;;;-143.66;100.00;63766.88;5070946;28;20178;-66
2022/08/04 10:03:11;;;;;;;13.07;4.78;;;;;;;-143.66;100.00;63766.88;5050462;28;20048;-66
2022/08/04 10:05:57;;;;;;;9.30;4.57;;;;;;;-143.66;100.00;63766.88;5037084;28;20109;-66
2022/08/04 10:09:08;;;;;;;10.75;4.78;;;;;;;-143.66;100.00;63766.88;5053363;28;20032;-66
2022/08/04 10:11:46;;;;;;;15.65;5.28;;;;;;;-143.66;100.00;63766.88;5064966;28;20033;-67
2022/08/04 10:14:30;;;;;;;12.60;4.80;;;;;;;-143.66;100.00;63766.88;5065684;28;20881;-66
2022/08/04 10:17:10;;;;;;;8.55;4.70;;;;;;;-143.66;100.00;63766.88;5071712;28;20040;-67
2022/08/04 10:19:37;;;;;;;12.85;5.25;;;;;;;-143.66;100.00;63766.88;5064399;28;20105;-67
2022/08/04 10:22:45;;;;;;;14.77;5.70;;;;;;;-143.66;100.00;63766.88;5065576;28;21903;-67
2022/08/04 10:25:32;;;;;;;12.93;5.47;;;;;;;-143.66;100.00;63766.88;5050257;28;20077;-67
2022/08/04 10:28:04;;;;;;;11.40;5.43;;;;;;;-143.66;100.00;63766.88;5062169;28;20473;-67
2022/08/04 10:30:35;;;;;;;11.55;5.20;;;;;;;-143.66;100.00;63766.88;5062790;28;20073;-67
2022/08/04 10:33:21;;;;;;;12.73;5.30;;;;;;;-143.66;100.00;63766.88;5070393;28;20619;-67
2022/08/04 10:35:51;;;;;;;10.93;5.72;;;;;;;-143.66;100.00;63766.88;5065716;28;20402;-67
2022/08/04 10:38:39;;;;;;;9.55;5.22;;;;;;;-143.66;100.00;63766.88;5048451;28;20036;-67
2022/08/04 10:41:31;;;;;;;7.00;5.72;;;;;;;-143.66;100.00;63766.88;5060635;28;20806;-67
2022/08/04 10:44:28;;;;;;;11.55;4.72;;;;;;;-143.66;100.00;63766.88;5052566;28;20436;-67
2022/08/04 10:47:01;;;;;;;8.32;4.80;;;;;;;-143.66;100.00;63766.88;5070844;28;20040;-68
2022/08/04 10:49:44;;;;;;;7.38;4.78;;;;;;;-143.66;100.00;63766.88;5065616;28;20566;-67
2022/08/04 10:52:15;;;;;;;10.20;5.88;;;;;;;-143.66;100.00;63766.88;5067248;28;20047;-67
2022/08/04 10:55:00;;;;;;;8.52;4.88;;;;;;;-143.66;100.00;63766.88;5041446;28;20032;-67
2022/08/04 10:57:35;;;;;;;13.07;4.90;;;;;;;-143.66;100.00;63766.88;5066319;28;20033;-68
2022/08/04 11:00:18;;;;;;;11.25;4.90;;;;;;;-143.66;100.00;63766.88;5071274;28;20060;-67
2022/08/04 11:02:53;;;;;;;9.27;5.15;;;;;;;-143.66;100.00;63766.88;5059454;28;20049;-68
2022/08/04 11:05:30;;;;;;;11.10;4.65;;;;;;;-143.66;100.00;63766.88;5067829;28;20060;-67
2022/08/04 11:08:02;;;;;;;9.63;5.00;;;;;;;-143.66;100.00;63766.88;5065185;28;20032;-68
2022/08/04 11:10:34;;;;;;;9.50;4.78;;;;;;;-143.66;100.00;63766.88;5053875;28;20045;-67
2022/08/04 11:13:09;;;;;;;8.00;4.60;;;;;;;-143.66;100.00;63766.88;5059866;28;20028;-68
2022/08/04 11:15:43;;;;;;;9.88;5.25;;;;;;;-143.66;100.00;63766.88;5069607;28;20028;-67
2022/08/04 11:18:17;;;;;;;9.52;4.70;;;;;;;-143.66;100.00;63766.88;5062693;28;20135;-67
2022/08/04 11:20:51;;;;;;;7.63;4.18;;;;;;;-143.66;100.00;63766.88;5058068;28;20029;-67
2022/08/04 11:23:21;;;;;;;7.82;4.20;;;;;;;-143.66;100.00;63766.88;5043101;28;20035;-67
2022/08/04 11:26:17;;;;;;;8.40;4.28;;;;;;;-143.66;100.00;63766.88;5043051;28;20037;-67
2022/08/04 11:29:00;;;;;;;7.70;4.93;;;;;;;-143.66;100.00;63766.88;5057982;28;20024;-70
2022/08/04 11:31:30;;;;;;;5.78;4.07;;;;;;;-143.66;100.00;63766.88;5057869;28;20033;-68
2022/08/04 11:34:34;;;;;;;9.25;4.80;;;;;;;-143.66;100.00;63766.88;5059783;28;20036;-65
2022/08/04 11:37:13;;;;;;;10.32;5.15;;;;;;;-143.66;100.00;63766.88;5064680;28;20048;-65
2022/08/04 11:39:52;;;;;;;9.27;4.55;;;;;;;-143.66;100.00;63766.88;5047413;28;20421;-65
2022/08/04 11:42:36;;;;;;;11.98;5.38;;;;;;;-143.66;100.00;63766.88;5065725;28;20063;-64
2022/08/04 11:45:06;;;;;;;13.02;5.03;;;;;;;-143.66;100.00;63766.88;5057878;28;20142;-65
2022/08/04 11:47:40;;;;;;;14.82;5.63;;;;;;;-143.66;100.00;63766.88;5065941;28;20114;-65
2022/08/04 11:50:13;;;;;;;12.82;5.43;;;;;;;-143.66;100.00;63766.88;5067355;28;20067;-65
2022/08/04 11:52:41;;;;;;;18.02;5.85;;;;;;;-143.66;100.00;63766.88;5060879;28;20020;-67